Taiseimaru — JL6483 — position and weather

sailwx.info

Track history (hours):
 
Tides and Currents Weather Stations Pressure Air Temp Water Temp Dewpoint Dewpoint Depression Visibility Wind Speed Wind Dir Waves Ship Positions

Taiseimaru

Last reported at 2016-Jul-26 04:32 UTC. Time now 2016-Jul-26 04:41 UTC.
Position N 34°10' E 135°09'.

Length 84 m; draft 4.7 m.

Type: Cargo ship. MMSI: 431500568.

Date/timePositionNaut miles runAvg speedWind from/ knotsBaromVisibWave heightAir tempDewpointWater temp
2016-Jul-26 04:32N 34°10' E 135°09'0 0.0
2016-Jul-26 03:32N 34°10' E 135°09'0 0.0
2016-Jul-26 02:29N 34°10' E 135°09'0 0.0
2016-Jul-26 01:32N 34°10' E 135°09'2 1.9
2016-Jul-26 00:25N 34°12' E 135°08'0 0.0
2016-Jul-25 23:31N 34°12' E 135°08'0 0.0
2016-Jul-25 22:28N 34°12' E 135°08'2 1.8
2016-Jul-25 21:33N 34°14' E 135°08'0 0.2
2016-Jul-25 20:32N 34°14' E 135°08'0 0.0
2016-Jul-25 19:32N 34°14' E 135°08'0 0.0
2016-Jul-25 18:32N 34°14' E 135°08'0 0.0
2016-Jul-25 17:32N 34°14' E 135°08'0 0.0
2016-Jul-25 16:32N 34°14' E 135°08'0 0.0
2016-Jul-25 15:32N 34°14' E 135°08'0 0.0
2016-Jul-25 14:32N 34°14' E 135°08'0 0.0
2016-Jul-25 13:29N 34°14' E 135°08'0 0.0
2016-Jul-25 12:32N 34°14' E 135°08'0 0.0
2016-Jul-25 11:33N 34°14' E 135°08'7 7.0
2016-Jul-25 10:33N 34°09' E 135°02'5 0.1
2016-Jul-23 21:32N 34°05' E 134°59'1111.7
2016-Jul-23 20:33N 34°14' E 135°06'1 1.4
2016-Jul-23 19:31N 34°14' E 135°08'0 0.0
2016-Jul-23 18:31N 34°14' E 135°08'0 0.0
2016-Jul-23 17:31N 34°14' E 135°08'0 0.0
2016-Jul-23 16:31N 34°14' E 135°08'0 0.0
2016-Jul-23 15:28N 34°14' E 135°08'0 0.0
2016-Jul-23 14:31N 34°14' E 135°08'0 0.0
2016-Jul-23 13:31N 34°14' E 135°08'0 0.0
2016-Jul-23 12:31N 34°14' E 135°08'1 1.1
2016-Jul-23 11:33N 34°14' E 135°07'16 0.4
2016-Jul-21 21:12N 34°01' E 134°56'812.3
2016-Jul-21 20:33N 34°08' E 135°01'8 8.3
2016-Jul-21 19:33N 34°14' E 135°08'0 0.0
2016-Jul-21 18:33N 34°14' E 135°08'0 0.0
2016-Jul-21 17:33N 34°14' E 135°08'0 0.0
2016-Jul-21 16:33N 34°14' E 135°08'0 0.0
2016-Jul-21 15:33N 34°14' E 135°08'0 0.0
2016-Jul-21 14:30N 34°14' E 135°08'0 0.0
2016-Jul-21 13:33N 34°14' E 135°08'0 0.0
2016-Jul-21 12:33N 34°14' E 135°08'0 0.2
2016-Jul-21 11:34N 34°14' E 135°08'10 9.2
2016-Jul-21 10:32N 34°06' E 135°00'2 0.1
2016-Jul-20 12:24N 34°05' E 134°60'910.9
2016-Jul-20 11:34N 34°10' E 135°09'0 0.4
2016-Jul-20 10:32N 34°10' E 135°09'0 0.0
2016-Jul-20 09:32N 34°10' E 135°09'0 0.0
2016-Jul-20 08:32N 34°10' E 135°09'0 0.0
2016-Jul-20 07:29N 34°10' E 135°09'0 0.0
2016-Jul-20 05:29N 34°10' E 135°09'0 0.0
2016-Jul-20 04:32N 34°10' E 135°09'0 0.0
2016-Jul-20 03:26N 34°10' E 135°09'0 0.0
2016-Jul-20 02:32N 34°10' E 135°09'0 0.0
2016-Jul-20 01:32N 34°10' E 135°09'0 0.0
2016-Jul-20 00:29N 34°10' E 135°09'0 0.0
2016-Jul-19 23:29N 34°10' E 135°09'0 0.0
2016-Jul-19 22:20N 34°10' E 135°09'0 0.0
2016-Jul-19 21:23N 34°10' E 135°09'0 0.0
2016-Jul-19 20:32N 34°10' E 135°09'0 0.0
2016-Jul-19 19:32N 34°10' E 135°09'0 0.0
2016-Jul-19 18:32N 34°10' E 135°09'0 0.0
2016-Jul-19 17:32N 34°10' E 135°09'0 0.0
2016-Jul-19 16:32N 34°10' E 135°09'0 0.1
2016-Jul-19 15:32N 34°10' E 135°09'0 0.0
2016-Jul-19 14:31N 34°10' E 135°09'0 0.0
2016-Jul-19 13:28N 34°10' E 135°09'0 0.0
2016-Jul-19 12:31N 34°10' E 135°09'0 0.0
2016-Jul-19 11:25N 34°10' E 135°09'0 0.1
2016-Jul-19 10:31N 34°10' E 135°09'0 0.0
2016-Jul-19 09:31N 34°10' E 135°09'0 0.0
2016-Jul-19 08:25N 34°10' E 135°09'0 0.0
2016-Jul-19 07:31N 34°10' E 135°09'4 1.3
2016-Jul-19 04:31N 34°14' E 135°08'0 0.0
2016-Jul-19 03:31N 34°14' E 135°08'0 0.0
2016-Jul-19 02:31N 34°14' E 135°08'0 0.0
2016-Jul-19 01:31N 34°14' E 135°08'0 0.0
2016-Jul-19 00:31N 34°14' E 135°08'0 0.0
2016-Jul-18 23:31N 34°14' E 135°08'0 0.0
2016-Jul-18 22:31N 34°14' E 135°08'0 0.0
2016-Jul-18 21:31N 34°14' E 135°08'0 0.0
2016-Jul-18 20:33N 34°14' E 135°08'3 2.8
2016-Jul-18 19:33N 34°15' E 135°05'0 0.1
2016-Jul-18 18:30N 34°15' E 135°05'0 0.0
2016-Jul-18 17:33N 34°15' E 135°05'0 0.0
2016-Jul-18 16:33N 34°15' E 135°05'0 0.1
2016-Jul-18 15:33N 34°15' E 135°05'0 0.0
2016-Jul-18 14:33N 34°15' E 135°05'0 0.1
2016-Jul-18 13:33N 34°15' E 135°05'1010.1
2016-Jul-18 12:33N 34°05' E 135°01'  
Track history (hours):
 
Tides and Currents Weather Stations Pressure Air Temp Water Temp Dewpoint Dewpoint Depression Visibility Wind Speed Wind Dir Waves Ship Positions

Taiseimaru

Last reported at 2016-Jul-26 04:32 UTC. Time now 2016-Jul-26 04:41 UTC.
Position N 34°10' E 135°09'.

Length 84 m; draft 4.7 m.

Type: Cargo ship. MMSI: 431500568.

Date/timePositionNaut miles runAvg speedWind from/ knotsBaromVisibWave heightAir tempDewpointWater temp
2016-Jul-26 04:32N 34°10' E 135°09'0 0.0
2016-Jul-26 03:32N 34°10' E 135°09'0 0.0
2016-Jul-26 02:29N 34°10' E 135°09'0 0.0
2016-Jul-26 01:32N 34°10' E 135°09'2 1.9
2016-Jul-26 00:25N 34°12' E 135°08'0 0.0
2016-Jul-25 23:31N 34°12' E 135°08'0 0.0
2016-Jul-25 22:28N 34°12' E 135°08'2 1.8
2016-Jul-25 21:33N 34°14' E 135°08'0 0.2
2016-Jul-25 20:32N 34°14' E 135°08'0 0.0
2016-Jul-25 19:32N 34°14' E 135°08'0 0.0
2016-Jul-25 18:32N 34°14' E 135°08'0 0.0
2016-Jul-25 17:32N 34°14' E 135°08'0 0.0
2016-Jul-25 16:32N 34°14' E 135°08'0 0.0
2016-Jul-25 15:32N 34°14' E 135°08'0 0.0
2016-Jul-25 14:32N 34°14' E 135°08'0 0.0
2016-Jul-25 13:29N 34°14' E 135°08'0 0.0
2016-Jul-25 12:32N 34°14' E 135°08'0 0.0
2016-Jul-25 11:33N 34°14' E 135°08'7 7.0
2016-Jul-25 10:33N 34°09' E 135°02'5 0.1
2016-Jul-23 21:32N 34°05' E 134°59'1111.7
2016-Jul-23 20:33N 34°14' E 135°06'1 1.4
2016-Jul-23 19:31N 34°14' E 135°08'0 0.0
2016-Jul-23 18:31N 34°14' E 135°08'0 0.0
2016-Jul-23 17:31N 34°14' E 135°08'0 0.0
2016-Jul-23 16:31N 34°14' E 135°08'0 0.0
2016-Jul-23 15:28N 34°14' E 135°08'0 0.0
2016-Jul-23 14:31N 34°14' E 135°08'0 0.0
2016-Jul-23 13:31N 34°14' E 135°08'0 0.0
2016-Jul-23 12:31N 34°14' E 135°08'1 1.1
2016-Jul-23 11:33N 34°14' E 135°07'16 0.4
2016-Jul-21 21:12N 34°01' E 134°56'812.3
2016-Jul-21 20:33N 34°08' E 135°01'8 8.3
2016-Jul-21 19:33N 34°14' E 135°08'0 0.0
2016-Jul-21 18:33N 34°14' E 135°08'0 0.0
2016-Jul-21 17:33N 34°14' E 135°08'0 0.0
2016-Jul-21 16:33N 34°14' E 135°08'0 0.0
2016-Jul-21 15:33N 34°14' E 135°08'0 0.0
2016-Jul-21 14:30N 34°14' E 135°08'0 0.0
2016-Jul-21 13:33N 34°14' E 135°08'0 0.0
2016-Jul-21 12:33N 34°14' E 135°08'0 0.2
2016-Jul-21 11:34N 34°14' E 135°08'10 9.2
2016-Jul-21 10:32N 34°06' E 135°00'2 0.1
2016-Jul-20 12:24N 34°05' E 134°60'910.9
2016-Jul-20 11:34N 34°10' E 135°09'0 0.4
2016-Jul-20 10:32N 34°10' E 135°09'0 0.0
2016-Jul-20 09:32N 34°10' E 135°09'0 0.0
2016-Jul-20 08:32N 34°10' E 135°09'0 0.0
2016-Jul-20 07:29N 34°10' E 135°09'0 0.0
2016-Jul-20 05:29N 34°10' E 135°09'0 0.0
2016-Jul-20 04:32N 34°10' E 135°09'0 0.0
2016-Jul-20 03:26N 34°10' E 135°09'0 0.0
2016-Jul-20 02:32N 34°10' E 135°09'0 0.0
2016-Jul-20 01:32N 34°10' E 135°09'0 0.0
2016-Jul-20 00:29N 34°10' E 135°09'0 0.0
2016-Jul-19 23:29N 34°10' E 135°09'0 0.0
2016-Jul-19 22:20N 34°10' E 135°09'0 0.0
2016-Jul-19 21:23N 34°10' E 135°09'0 0.0
2016-Jul-19 20:32N 34°10' E 135°09'0 0.0
2016-Jul-19 19:32N 34°10' E 135°09'0 0.0
2016-Jul-19 18:32N 34°10' E 135°09'0 0.0
2016-Jul-19 17:32N 34°10' E 135°09'0 0.0
2016-Jul-19 16:32N 34°10' E 135°09'0 0.1
2016-Jul-19 15:32N 34°10' E 135°09'0 0.0
2016-Jul-19 14:31N 34°10' E 135°09'0 0.0
2016-Jul-19 13:28N 34°10' E 135°09'0 0.0
2016-Jul-19 12:31N 34°10' E 135°09'0 0.0
2016-Jul-19 11:25N 34°10' E 135°09'0 0.1
2016-Jul-19 10:31N 34°10' E 135°09'0 0.0
2016-Jul-19 09:31N 34°10' E 135°09'0 0.0
2016-Jul-19 08:25N 34°10' E 135°09'0 0.0
2016-Jul-19 07:31N 34°10' E 135°09'4 1.3
2016-Jul-19 04:31N 34°14' E 135°08'0 0.0
2016-Jul-19 03:31N 34°14' E 135°08'0 0.0
2016-Jul-19 02:31N 34°14' E 135°08'0 0.0
2016-Jul-19 01:31N 34°14' E 135°08'0 0.0
2016-Jul-19 00:31N 34°14' E 135°08'0 0.0
2016-Jul-18 23:31N 34°14' E 135°08'0 0.0
2016-Jul-18 22:31N 34°14' E 135°08'0 0.0
2016-Jul-18 21:31N 34°14' E 135°08'0 0.0
2016-Jul-18 20:33N 34°14' E 135°08'3 2.8
2016-Jul-18 19:33N 34°15' E 135°05'0 0.1
2016-Jul-18 18:30N 34°15' E 135°05'0 0.0
2016-Jul-18 17:33N 34°15' E 135°05'0 0.0
2016-Jul-18 16:33N 34°15' E 135°05'0 0.1
2016-Jul-18 15:33N 34°15' E 135°05'0 0.0
2016-Jul-18 14:33N 34°15' E 135°05'0 0.1
2016-Jul-18 13:33N 34°15' E 135°05'1010.1
2016-Jul-18 12:33N 34°05' E 135°01'  

Dump ship's entire track history